Time;durP1;ratioP1;P1;durP2;ratioP2;P2;SDS_P1;SDS_P2;PMS_P1;PMS_P2;Temp;Humidity;BMP_temperature;BMP_pressure;BME280_temperature;BME280_humidity;BME280_pressure;Samples;Min_cycle;Max_cycle;Signal;HPM_P1;HPM_P2
2023/07/05 00:00:38;;;;;;;6.27;3.90;;;15.60;99.90;;;;;;5212862;28;20205;-50
2023/07/05 00:03:10;;;;;;;6.20;4.00;;;15.50;99.90;;;;;;5224285;28;20186;-50
2023/07/05 00:05:41;;;;;;;7.13;3.80;;;15.50;99.90;;;;;;5223913;28;20444;-50
2023/07/05 00:08:11;;;;;;;6.80;4.27;;;15.50;99.90;;;;;;5237716;28;23496;-52
2023/07/05 00:10:42;;;;;;;14.13;4.23;;;15.50;99.90;;;;;;5239051;28;20577;-50
2023/07/05 00:13:13;;;;;;;6.40;3.77;;;15.50;99.90;;;;;;5222445;28;20178;-50
2023/07/05 00:15:47;;;;;;;14.17;3.80;;;15.50;99.90;;;;;;5203126;28;20178;-50
2023/07/05 00:18:18;;;;;;;4.63;3.50;;;15.50;99.90;;;;;;5237313;28;20209;-51
2023/07/05 00:20:49;;;;;;;16.80;4.43;;;15.40;99.90;;;;;;5239821;28;20463;-51
2023/07/05 00:23:20;;;;;;;5.00;3.50;;;15.40;99.90;;;;;;5219765;28;20460;-53
2023/07/05 00:25:51;;;;;;;12.30;3.60;;;15.40;99.90;;;;;;5235420;28;20700;-52
2023/07/05 00:28:22;;;;;;;7.63;4.33;;;15.40;99.90;;;;;;5232921;28;20453;-50
2023/07/05 00:30:53;;;;;;;4.37;3.90;;;15.40;99.90;;;;;;5218814;28;20194;-50
2023/07/05 00:33:23;;;;;;;4.43;4.00;;;15.40;99.90;;;;;;5233370;28;20440;-51
2023/07/05 00:35:55;;;;;;;3.90;3.60;;;15.40;99.90;;;;;;5219834;28;20209;-51
2023/07/05 00:38:26;;;;;;;5.10;3.80;;;15.40;99.90;;;;;;5215669;28;20190;-51
2023/07/05 00:40:57;;;;;;;8.37;4.17;;;15.40;99.90;;;;;;5219403;28;20456;-51
2023/07/05 00:43:28;;;;;;;7.33;4.00;;;15.40;99.90;;;;;;5237568;28;20425;-50
2023/07/05 00:46:04;;;;;;;4.10;3.40;;;15.40;99.90;;;;;;5218977;28;20432;-51
2023/07/05 00:48:37;;;;;;;7.03;3.90;;;15.40;99.90;;;;;;5237876;28;20556;-51
2023/07/05 00:51:22;;;;;;;5.30;3.77;;;15.40;99.90;;;;;;5230158;28;20546;-50
2023/07/05 00:53:58;;;;;;;8.53;4.20;;;15.40;99.90;;;;;;5240081;28;20447;-50
2023/07/05 00:56:36;;;;;;;15.27;4.47;;;15.40;99.90;;;;;;5227425;28;20456;-51
2023/07/05 00:59:10;;;;;;;5.50;3.27;;;15.40;99.90;;;;;;5241387;28;20420;-51
2023/07/05 01:01:41;;;;;;;12.73;4.70;;;15.40;99.90;;;;;;5221715;28;20473;-50
2023/07/05 01:04:12;;;;;;;4.00;3.53;;;15.40;99.90;;;;;;5238855;28;20432;-50
2023/07/05 01:06:44;;;;;;;5.17;3.60;;;15.40;99.90;;;;;;5234751;28;20518;-51
2023/07/05 01:09:15;;;;;;;8.10;3.23;;;15.40;99.90;;;;;;5239653;28;20178;-51
2023/07/05 01:11:52;;;;;;;14.57;4.00;;;15.40;99.90;;;;;;5230754;28;20482;-53
2023/07/05 01:14:46;;;;;;;7.23;3.37;;;15.30;99.90;;;;;;5238509;28;20654;-50
2023/07/05 01:17:55;;;;;;;4.07;3.13;;;15.30;99.90;;;;;;5224677;28;20979;-51
2023/07/05 01:20:29;;;;;;;4.53;4.00;;;15.30;99.90;;;;;;5238008;28;20519;-54
2023/07/05 01:23:30;;;;;;;4.93;3.90;;;15.30;99.90;;;;;;5241293;28;20447;-50
2023/07/05 01:26:14;;;;;;;5.30;3.80;;;15.30;99.90;;;;;;5219551;28;20463;-51
2023/07/05 01:28:59;;;;;;;3.70;3.13;;;15.30;99.90;;;;;;5238303;28;20425;-50
2023/07/05 01:31:59;;;;;;;7.40;3.57;;;15.30;99.90;;;;;;5238167;28;20436;-51
2023/07/05 01:34:51;;;;;;;11.47;4.03;;;15.30;99.90;;;;;;5235220;28;21103;-51
2023/07/05 01:37:38;;;;;;;4.53;3.47;;;15.30;99.90;;;;;;5221726;28;20452;-53
2023/07/05 01:40:15;;;;;;;5.43;3.37;;;15.30;99.90;;;;;;5224948;28;20989;-51
2023/07/05 01:42:48;;;;;;;6.90;4.07;;;15.40;99.90;;;;;;5231308;28;20472;-51
2023/07/05 01:45:27;;;;;;;5.23;3.60;;;15.50;99.90;;;;;;5234931;28;20778;-52
2023/07/05 01:48:07;;;;;;;8.73;3.30;;;15.50;99.90;;;;;;5234147;28;20518;-51
2023/07/05 01:50:44;;;;;;;4.93;3.43;;;15.50;99.90;;;;;;5218769;28;20463;-51
2023/07/05 01:53:24;;;;;;;4.83;3.10;;;15.50;99.90;;;;;;5223156;28;20443;-51
2023/07/05 01:56:06;;;;;;;5.63;3.80;;;15.60;99.90;;;;;;5232620;28;20941;-51
2023/07/05 01:58:42;;;;;;;4.00;3.70;;;15.60;99.90;;;;;;5213906;28;20445;-51
2023/07/05 02:01:15;;;;;;;3.83;3.50;;;15.60;99.90;;;;;;5214221;28;20539;-50
2023/07/05 02:03:49;;;;;;;5.00;3.70;;;15.60;99.90;;;;;;5236265;28;20432;-51
2023/07/05 02:06:21;;;;;;;5.90;3.77;;;15.60;99.90;;;;;;5235225;28;20543;-52
2023/07/05 02:08:53;;;;;;;6.83;3.70;;;15.60;99.90;;;;;;5224000;28;20435;-52
2023/07/05 02:11:23;;;;;;;3.97;3.57;;;15.60;99.90;;;;;;5243827;28;20440;-51
2023/07/05 02:13:55;;;;;;;4.57;2.83;;;15.60;99.90;;;;;;5240533;28;20812;-51
2023/07/05 02:16:26;;;;;;;6.60;3.23;;;15.60;99.90;;;;;;5237360;28;20707;-50
2023/07/05 02:18:57;;;;;;;6.13;3.47;;;15.60;99.90;;;;;;5228495;28;20436;-54
2023/07/05 02:21:28;;;;;;;11.53;3.80;;;15.70;99.90;;;;;;5240224;28;20203;-51
2023/07/05 02:23:59;;;;;;;3.97;3.30;;;15.60;99.90;;;;;;5237114;28;20186;-49
2023/07/05 02:26:29;;;;;;;4.67;2.93;;;15.60;99.90;;;;;;5226390;28;20444;-50
2023/07/05 02:29:00;;;;;;;3.90;3.60;;;15.60;99.90;;;;;;5215144;28;20673;-55
2023/07/05 02:31:31;;;;;;;6.30;4.17;;;15.60;99.90;;;;;;5224206;28;20189;-53
2023/07/05 02:34:02;;;;;;;4.20;2.90;;;15.60;99.90;;;;;;5227538;28;20679;-51
2023/07/05 02:36:34;;;;;;;3.73;3.23;;;15.60;99.90;;;;;;5242011;28;20201;-51
2023/07/05 02:39:04;;;;;;;7.40;3.47;;;15.50;99.90;;;;;;5237128;28;20700;-53
2023/07/05 02:41:35;;;;;;;7.67;3.60;;;15.50;99.90;;;;;;5242393;28;20469;-50
2023/07/05 02:44:06;;;;;;;6.87;3.80;;;15.50;99.90;;;;;;5242994;28;20178;-54
2023/07/05 02:46:36;;;;;;;7.57;3.03;;;15.40;99.90;;;;;;5237574;28;20281;-51
2023/07/05 02:49:07;;;;;;;6.60;3.40;;;15.40;99.90;;;;;;5238170;28;20259;-50
2023/07/05 02:51:38;;;;;;;5.27;3.90;;;15.30;99.90;;;;;;5230472;28;20179;-51
2023/07/05 02:54:09;;;;;;;3.77;3.50;;;15.30;99.90;;;;;;5228822;28;20182;-51
2023/07/05 02:56:39;;;;;;;9.70;4.23;;;15.20;99.90;;;;;;5238213;28;20230;-50
2023/07/05 02:59:10;;;;;;;4.43;4.00;;;15.20;99.90;;;;;;5228811;28;20510;-51
2023/07/05 03:01:41;;;;;;;3.60;3.30;;;15.20;99.90;;;;;;5213482;28;20590;-51
2023/07/05 03:04:13;;;;;;;3.37;3.07;;;15.20;99.90;;;;;;5224136;28;20348;-50
2023/07/05 03:06:44;;;;;;;8.90;4.10;;;15.10;99.90;;;;;;5221977;28;20741;-49
2023/07/05 03:09:15;;;;;;;6.17;4.17;;;15.10;99.90;;;;;;5217207;28;20576;-51
2023/07/05 03:11:46;;;;;;;4.80;4.17;;;15.10;99.90;;;;;;5217383;28;20547;-51
2023/07/05 03:14:17;;;;;;;10.27;4.13;;;15.10;99.90;;;;;;5242004;28;20767;-51
2023/07/05 03:16:48;;;;;;;6.57;4.10;;;15.10;99.90;;;;;;5237798;28;20451;-50
2023/07/05 03:19:18;;;;;;;5.13;3.73;;;15.10;99.90;;;;;;5240130;28;20196;-51
2023/07/05 03:21:49;;;;;;;6.37;3.67;;;15.10;99.90;;;;;;5225413;28;20190;-51
2023/07/05 03:24:19;;;;;;;6.70;3.70;;;15.20;99.90;;;;;;5236751;28;20533;-53
2023/07/05 03:26:52;;;;;;;12.63;3.63;;;15.20;99.90;;;;;;5237636;28;20208;-51
2023/07/05 03:29:22;;;;;;;4.70;3.83;;;15.20;99.90;;;;;;5218866;28;20547;-50
2023/07/05 03:31:54;;;;;;;7.60;3.40;;;15.30;99.90;;;;;;5233598;28;20443;-51
2023/07/05 03:34:24;;;;;;;15.00;4.20;;;15.30;99.90;;;;;;5219310;28;20175;-51
2023/07/05 03:36:55;;;;;;;5.30;3.90;;;15.30;99.90;;;;;;5233566;28;20794;-51
2023/07/05 03:39:26;;;;;;;4.17;2.70;;;15.40;99.90;;;;;;5238981;28;20642;-51
2023/07/05 03:41:56;;;;;;;13.83;4.33;;;15.40;99.90;;;;;;5235391;28;20285;-51
2023/07/05 03:44:27;;;;;;;7.80;4.20;;;15.40;99.90;;;;;;5236416;28;20232;-51
2023/07/05 03:46:59;;;;;;;5.63;3.67;;;15.50;99.90;;;;;;5221118;28;20623;-52
2023/07/05 03:49:30;;;;;;;4.77;3.57;;;15.60;99.90;;;;;;5243077;28;20194;-50
2023/07/05 03:52:00;;;;;;;5.73;3.80;;;15.60;99.90;;;;;;5238366;28;20441;-51
2023/07/05 03:54:32;;;;;;;8.97;4.10;;;15.70;99.90;;;;;;5220983;28;20706;-52
2023/07/05 03:57:03;;;;;;;13.43;3.30;;;15.70;99.90;;;;;;5224172;28;20351;-50
2023/07/05 03:59:33;;;;;;;4.10;3.67;;;15.80;99.90;;;;;;5225316;28;20515;-51
2023/07/05 04:02:04;;;;;;;6.70;3.83;;;15.80;99.90;;;;;;5222804;28;20213;-50
2023/07/05 04:04:35;;;;;;;5.20;3.80;;;15.90;99.90;;;;;;5237048;28;20261;-51
2023/07/05 04:07:05;;;;;;;11.50;4.07;;;15.90;99.90;;;;;;5226494;28;20285;-52
2023/07/05 04:09:36;;;;;;;12.17;4.07;;;16.00;99.90;;;;;;5238965;28;20709;-51
2023/07/05 04:12:07;;;;;;;4.83;4.00;;;16.10;99.90;;;;;;5216991;28;20219;-51
2023/07/05 04:14:38;;;;;;;3.60;3.33;;;16.10;99.90;;;;;;5240247;28;20190;-51
2023/07/05 04:17:08;;;;;;;4.67;3.83;;;16.10;99.90;;;;;;5220861;28;20451;-53
2023/07/05 04:19:39;;;;;;;13.73;4.30;;;16.20;99.70;;;;;;5218092;28;20190;-52
2023/07/05 04:22:11;;;;;;;4.67;3.67;;;16.30;99.60;;;;;;5206241;28;20224;-51
2023/07/05 04:24:41;;;;;;;3.77;3.47;;;16.30;98.90;;;;;;5203471;28;20246;-50
2023/07/05 04:27:13;;;;;;;4.93;3.60;;;16.40;98.60;;;;;;5221627;28;20595;-51
2023/07/05 04:29:43;;;;;;;4.77;3.40;;;16.40;98.20;;;;;;5233324;28;20344;-50
2023/07/05 04:32:14;;;;;;;3.47;3.20;;;16.40;98.20;;;;;;5232351;28;20449;-50
2023/07/05 04:34:45;;;;;;;6.20;3.30;;;16.50;98.10;;;;;;5219115;28;20179;-54
2023/07/05 04:37:15;;;;;;;5.63;3.40;;;16.50;97.80;;;;;;5237302;28;20561;-51
2023/07/05 04:39:46;;;;;;;5.40;3.77;;;16.50;97.70;;;;;;5215689;28;20179;-52
2023/07/05 04:42:17;;;;;;;6.40;3.23;;;16.60;97.50;;;;;;5218808;28;20210;-49
2023/07/05 04:44:47;;;;;;;7.97;3.70;;;16.60;97.40;;;;;;5219318;28;20190;-49
2023/07/05 04:47:18;;;;;;;7.60;3.30;;;16.80;96.80;;;;;;5232777;28;20217;-48
2023/07/05 04:49:49;;;;;;;4.83;3.43;;;16.80;96.40;;;;;;5216431;28;20196;-47
2023/07/05 04:52:19;;;;;;;3.90;3.53;;;17.10;96.20;;;;;;5239452;28;20186;-50
2023/07/05 04:54:52;;;;;;;5.73;3.20;;;17.30;95.60;;;;;;5242048;28;20182;-50
2023/07/05 04:57:22;;;;;;;6.77;4.47;;;17.60;94.80;;;;;;5239367;28;20284;-49
2023/07/05 04:59:53;;;;;;;4.50;3.20;;;18.00;94.10;;;;;;5214662;28;20922;-50
2023/07/05 05:02:24;;;;;;;7.20;3.83;;;18.30;93.00;;;;;;5225071;28;20276;-48
2023/07/05 05:04:54;;;;;;;9.57;4.00;;;18.70;91.70;;;;;;5221208;28;20217;-48
2023/07/05 05:07:25;;;;;;;5.23;4.13;;;18.80;90.60;;;;;;5241240;28;20612;-50
2023/07/05 05:09:57;;;;;;;6.90;4.07;;;18.50;90.60;;;;;;5233462;28;20178;-49
2023/07/05 05:12:28;;;;;;;8.30;4.17;;;18.10;90.80;;;;;;5223831;28;20319;-49
2023/07/05 05:14:59;;;;;;;5.60;3.73;;;17.80;91.50;;;;;;5236894;28;20452;-50
2023/07/05 05:17:30;;;;;;;7.50;4.10;;;17.60;92.20;;;;;;5241791;28;20961;-50
2023/07/05 05:20:00;;;;;;;14.10;4.27;;;17.60;92.50;;;;;;5229481;28;20600;-48
2023/07/05 05:22:31;;;;;;;10.63;4.50;;;17.70;92.40;;;;;;5241051;28;20202;-49
2023/07/05 05:25:02;;;;;;;5.93;4.37;;;17.80;92.40;;;;;;5222144;28;20171;-51
2023/07/05 05:27:33;;;;;;;7.43;3.83;;;18.10;92.00;;;;;;5238153;28;20622;-48
2023/07/05 05:30:04;;;;;;;8.50;4.20;;;18.40;91.30;;;;;;5218829;28;20451;-49
2023/07/05 05:32:35;;;;;;;5.37;4.00;;;18.70;90.30;;;;;;5207813;28;20186;-48
2023/07/05 05:35:06;;;;;;;5.20;3.90;;;18.90;89.80;;;;;;5233845;28;20424;-48
2023/07/05 05:37:36;;;;;;;9.20;4.27;;;18.90;89.50;;;;;;5231841;28;20199;-50
2023/07/05 05:40:09;;;;;;;15.00;4.03;;;18.70;89.30;;;;;;5243310;28;20436;-49
2023/07/05 05:42:40;;;;;;;6.13;3.80;;;18.70;89.00;;;;;;5225826;28;20717;-48
2023/07/05 05:45:11;;;;;;;6.77;4.20;;;18.60;89.00;;;;;;5210879;28;20421;-50
2023/07/05 05:47:43;;;;;;;3.50;3.30;;;18.70;89.20;;;;;;5205472;28;20211;-50
2023/07/05 05:50:14;;;;;;;9.87;3.83;;;19.50;88.00;;;;;;5225830;28;20433;-49
2023/07/05 05:52:45;;;;;;;10.37;4.63;;;21.10;81.10;;;;;;5227572;28;20452;-49
2023/07/05 05:55:16;;;;;;;6.90;3.77;;;21.60;74.40;;;;;;5216284;28;20436;-50
2023/07/05 05:57:47;;;;;;;9.70;4.13;;;21.00;74.10;;;;;;5242622;28;20205;-49
2023/07/05 06:00:18;;;;;;;7.87;4.30;;;20.60;75.40;;;;;;5217014;28;20527;-50
2023/07/05 06:02:49;;;;;;;9.60;4.20;;;20.20;76.20;;;;;;5241073;28;20469;-51
2023/07/05 06:05:19;;;;;;;15.43;5.27;;;19.80;78.00;;;;;;5238792;28;20421;-53
2023/07/05 06:07:50;;;;;;;5.80;4.67;;;19.30;80.40;;;;;;5228729;28;20229;-52
2023/07/05 06:10:24;;;;;;;13.03;4.90;;;19.00;82.00;;;;;;5219990;28;20185;-51
2023/07/05 06:12:54;;;;;;;9.90;4.37;;;18.80;83.60;;;;;;5225143;28;20178;-49
2023/07/05 06:15:25;;;;;;;5.43;4.43;;;18.60;84.90;;;;;;5214155;28;21004;-50
2023/07/05 06:17:56;;;;;;;6.80;4.30;;;18.60;86.20;;;;;;5233520;28;22848;-51
2023/07/05 06:20:29;;;;;;;5.23;3.93;;;18.50;87.10;;;;;;5202110;28;20269;-50
2023/07/05 06:23:03;;;;;;;6.80;4.70;;;18.50;87.90;;;;;;5219686;28;20690;-51
2023/07/05 06:25:34;;;;;;;17.07;4.97;;;18.60;88.50;;;;;;5205556;28;20523;-50
2023/07/05 06:28:04;;;;;;;8.43;4.23;;;18.70;89.40;;;;;;5221317;28;20503;-49
2023/07/05 06:30:35;;;;;;;4.93;4.00;;;18.70;89.60;;;;;;5237260;28;20849;-49
2023/07/05 06:33:06;;;;;;;12.20;5.00;;;18.70;88.90;;;;;;5236651;28;20225;-51
2023/07/05 06:35:37;;;;;;;6.97;4.80;;;18.70;89.20;;;;;;5216827;28;20230;-50
2023/07/05 06:38:08;;;;;;;6.70;4.90;;;18.80;89.50;;;;;;5234545;28;20456;-50
2023/07/05 06:40:38;;;;;;;9.63;4.97;;;18.80;89.20;;;;;;5238554;28;20536;-51
2023/07/05 06:43:09;;;;;;;7.73;4.53;;;18.90;88.90;;;;;;5220789;28;20187;-50
2023/07/05 06:45:40;;;;;;;8.87;5.50;;;19.00;88.80;;;;;;5219511;28;20195;-51
2023/07/05 06:48:10;;;;;;;6.57;4.80;;;19.10;88.30;;;;;;5221959;28;20593;-49
2023/07/05 06:50:41;;;;;;;6.73;4.60;;;19.40;88.00;;;;;;5232339;28;20562;-50
2023/07/05 06:53:12;;;;;;;9.43;5.10;;;19.60;86.90;;;;;;5222842;28;20186;-49
2023/07/05 06:55:43;;;;;;;8.20;5.87;;;19.70;85.30;;;;;;5236453;28;20437;-50
2023/07/05 06:58:16;;;;;;;8.50;5.40;;;19.70;84.70;;;;;;5233260;28;20206;-51
2023/07/05 07:00:48;;;;;;;14.43;5.83;;;20.00;84.70;;;;;;5200462;28;20225;-50
2023/07/05 07:03:18;;;;;;;8.90;4.97;;;20.80;83.60;;;;;;5237481;28;20929;-48
2023/07/05 07:05:54;;;;;;;10.70;6.20;;;21.90;77.20;;;;;;5230759;28;20441;-50
2023/07/05 07:08:30;;;;;;;7.73;5.60;;;22.60;73.80;;;;;;5222163;28;20197;-50
2023/07/05 07:11:02;;;;;;;14.50;6.40;;;23.40;68.80;;;;;;5206796;28;20460;-52
2023/07/05 07:13:34;;;;;;;7.70;5.33;;;22.90;67.40;;;;;;5236188;28;20448;-49
2023/07/05 07:16:06;;;;;;;14.47;5.97;;;22.60;68.00;;;;;;5238339;28;20444;-51
2023/07/05 07:18:37;;;;;;;7.80;5.70;;;22.40;69.10;;;;;;5241828;28;20527;-49
2023/07/05 07:21:11;;;;;;;12.23;5.67;;;22.40;70.10;;;;;;5217395;28;20472;-48
2023/07/05 07:23:41;;;;;;;8.10;5.97;;;23.10;67.70;;;;;;5221310;28;20437;-50
2023/07/05 07:26:18;;;;;;;10.00;6.87;;;24.40;64.20;;;;;;5209585;28;20417;-50
2023/07/05 07:28:52;;;;;;;15.97;6.20;;;24.50;60.60;;;;;;5234348;28;20269;-50
2023/07/05 07:31:25;;;;;;;12.17;6.33;;;24.40;60.30;;;;;;5235256;28;20786;-49
2023/07/05 07:33:56;;;;;;;12.70;6.53;;;25.10;59.90;;;;;;5225227;28;20440;-49
2023/07/05 07:36:29;;;;;;;13.33;7.20;;;26.40;56.30;;;;;;5235923;28;20462;-49
2023/07/05 07:39:00;;;;;;;23.93;7.40;;;26.70;53.70;;;;;;5236187;28;20860;-51
2023/07/05 07:41:34;;;;;;;11.30;7.60;;;26.50;52.40;;;;;;5214473;28;20521;-50
2023/07/05 07:44:08;;;;;;;10.40;6.60;;;26.50;52.10;;;;;;5241582;28;20182;-49
2023/07/05 07:46:40;;;;;;;11.53;7.07;;;26.00;52.70;;;;;;5236545;28;20467;-49
2023/07/05 07:49:11;;;;;;;12.10;7.33;;;26.30;51.90;;;;;;5202179;28;20480;-49
2023/07/05 07:51:45;;;;;;;11.30;8.10;;;26.00;52.00;;;;;;5238728;28;20460;-49
2023/07/05 07:54:17;;;;;;;17.13;7.57;;;25.60;52.70;;;;;;5233343;28;20500;-50
2023/07/05 07:56:48;;;;;;;12.10;8.50;;;25.60;52.80;;;;;;5238682;28;20444;-47
2023/07/05 07:59:19;;;;;;;18.03;7.13;;;25.60;53.20;;;;;;5214002;28;21008;-49
2023/07/05 08:01:50;;;;;;;13.67;7.60;;;25.60;52.90;;;;;;5233567;28;20224;-51
2023/07/05 08:04:21;;;;;;;14.70;8.27;;;25.60;52.90;;;;;;5219639;28;20265;-48
2023/07/05 08:06:52;;;;;;;12.13;8.10;;;25.60;53.00;;;;;;5242479;28;20202;-49
2023/07/05 08:09:28;;;;;;;9.30;6.50;;;25.80;52.80;;;;;;5236620;28;20189;-48
2023/07/05 08:11:59;;;;;;;10.73;7.80;;;26.00;52.90;;;;;;5236814;28;20216;-48
2023/07/05 08:14:30;;;;;;;19.37;8.60;;;26.30;52.00;;;;;;5241438;28;20472;-49
2023/07/05 08:17:01;;;;;;;14.43;8.50;;;26.00;52.10;;;;;;5236319;28;20686;-49
2023/07/05 08:19:31;;;;;;;16.13;8.30;;;25.80;52.50;;;;;;5235361;28;20679;-49
2023/07/05 08:22:02;;;;;;;14.90;9.13;;;25.70;52.70;;;;;;5236463;28;20229;-49
2023/07/05 08:24:33;;;;;;;16.33;9.20;;;25.50;52.50;;;;;;5238322;28;20545;-50
2023/07/05 08:27:05;;;;;;;14.73;9.27;;;25.40;52.80;;;;;;5217156;28;20468;-50
2023/07/05 08:29:35;;;;;;;20.83;9.37;;;25.10;52.80;;;;;;5220134;28;20179;-51
2023/07/05 08:32:06;;;;;;;13.90;9.17;;;25.00;53.30;;;;;;5233212;28;20962;-49
2023/07/05 08:34:37;;;;;;;15.13;8.50;;;25.00;53.70;;;;;;5221033;28;20273;-52
2023/07/05 08:37:08;;;;;;;18.67;9.90;;;24.90;53.70;;;;;;5229968;28;20218;-51
2023/07/05 08:39:39;;;;;;;19.63;9.83;;;24.90;54.10;;;;;;5218542;28;20205;-53
2023/07/05 08:42:23;;;;;;;12.60;9.50;;;24.60;54.40;;;;;;5236412;28;20639;-50
2023/07/05 08:45:02;;;;;;;12.50;8.97;;;24.40;54.90;;;;;;5217016;28;20669;-52
2023/07/05 08:47:45;;;;;;;16.77;9.63;;;24.10;55.80;;;;;;5224233;28;20469;-51
2023/07/05 08:50:32;;;;;;;13.43;9.70;;;23.80;56.70;;;;;;5216899;28;20429;-52
2023/07/05 08:53:14;;;;;;;28.07;11.10;;;23.70;57.30;;;;;;5211170;28;20806;-50
2023/07/05 08:56:06;;;;;;;14.10;9.00;;;23.60;57.60;;;;;;5210152;28;20450;-51
2023/07/05 08:58:43;;;;;;;17.43;9.43;;;23.70;57.70;;;;;;5223587;28;20498;-52
2023/07/05 09:01:26;;;;;;;18.23;10.57;;;23.80;58.00;;;;;;5213964;28;20458;-54
2023/07/05 09:03:56;;;;;;;18.97;8.90;;;24.00;57.70;;;;;;5213115;28;20481;-49
2023/07/05 09:06:40;;;;;;;17.43;9.77;;;23.90;58.00;;;;;;5216634;28;20915;-50
2023/07/05 09:09:29;;;;;;;14.20;8.77;;;24.10;58.10;;;;;;5212142;28;20180;-52
2023/07/05 09:12:20;;;;;;;17.80;9.20;;;24.40;57.90;;;;;;5208454;28;20962;-51
2023/07/05 09:15:02;;;;;;;15.67;9.17;;;24.80;57.00;;;;;;5209299;28;20442;-51
2023/07/05 09:18:19;;;;;;;17.27;8.20;;;25.20;56.80;;;;;;5206604;28;21122;-51
2023/07/05 09:21:17;;;;;;;12.90;7.60;;;25.70;56.30;;;;;;5212408;28;20440;-54
2023/07/05 09:23:55;;;;;;;12.70;8.73;;;25.90;55.40;;;;;;5237610;28;20918;-53
2023/07/05 09:26:37;;;;;;;9.80;8.07;;;26.00;54.80;;;;;;5208757;28;20468;-52
2023/07/05 09:29:07;;;;;;;13.27;8.77;;;25.90;54.00;;;;;;5215989;28;20452;-50
2023/07/05 09:31:39;;;;;;;14.00;7.83;;;25.80;54.10;;;;;;5216446;28;20453;-52
2023/07/05 09:34:23;;;;;;;10.30;7.40;;;25.40;54.40;;;;;;5213749;28;20195;-52
2023/07/05 09:36:54;;;;;;;10.93;6.90;;;25.10;54.80;;;;;;5206616;28;20547;-51
2023/07/05 09:39:36;;;;;;;18.63;7.00;;;25.10;55.20;;;;;;5213143;28;20480;-51
2023/07/05 09:42:27;;;;;;;11.00;6.90;;;24.80;55.90;;;;;;5213854;28;20289;-55
2023/07/05 09:44:58;;;;;;;13.33;7.03;;;24.70;55.90;;;;;;5196651;28;20438;-52
2023/07/05 09:47:29;;;;;;;9.60;7.50;;;24.50;56.50;;;;;;5226175;28;20936;-52
2023/07/05 09:49:59;;;;;;;9.00;6.70;;;24.70;56.40;;;;;;5229782;28;20441;-51
2023/07/05 09:52:30;;;;;;;9.27;6.00;;;24.90;55.80;;;;;;5219807;28;20188;-51
2023/07/05 09:55:02;;;;;;;7.53;6.23;;;25.10;56.00;;;;;;5230807;28;20244;-51
2023/07/05 09:57:35;;;;;;;11.00;6.50;;;25.00;56.30;;;;;;5218160;28;20653;-50
2023/07/05 10:00:31;;;;;;;12.53;6.53;;;24.90;56.00;;;;;;5229651;28;20476;-50
2023/07/05 10:03:21;;;;;;;9.70;6.33;;;24.70;56.60;;;;;;5201436;28;20472;-51
2023/07/05 10:05:54;;;;;;;12.20;6.60;;;24.80;57.00;;;;;;5219587;28;20431;-51
2023/07/05 10:08:25;;;;;;;14.23;6.70;;;25.10;56.70;;;;;;5234077;28;20482;-50
2023/07/05 10:10:55;;;;;;;9.43;6.00;;;25.20;56.10;;;;;;5211667;28;20449;-51
2023/07/05 10:13:26;;;;;;;14.50;5.60;;;25.40;56.10;;;;;;5227211;28;20197;-52
2023/07/05 10:16:01;;;;;;;7.50;5.60;;;25.50;55.80;;;;;;5209538;28;20269;-50
2023/07/05 10:18:34;;;;;;;15.43;5.80;;;25.60;55.90;;;;;;5212003;28;20580;-50
2023/07/05 10:21:18;;;;;;;6.43;5.50;;;25.60;55.60;;;;;;5233005;28;20476;-51
2023/07/05 10:23:49;;;;;;;6.70;5.20;;;25.80;55.60;;;;;;5233118;28;20440;-51
2023/07/05 10:26:20;;;;;;;6.53;5.87;;;25.70;55.80;;;;;;5221768;28;20502;-52
2023/07/05 10:28:53;;;;;;;5.43;4.67;;;25.80;56.10;;;;;;5239404;28;20505;-50
2023/07/05 10:31:30;;;;;;;5.97;5.13;;;25.90;55.80;;;;;;5237804;28;20710;-51
2023/07/05 10:34:06;;;;;;;5.87;4.90;;;26.20;55.80;;;;;;5222317;28;20440;-52
2023/07/05 10:36:44;;;;;;;8.77;5.03;;;26.50;55.70;;;;;;5236573;28;20509;-55
2023/07/05 10:39:26;;;;;;;6.60;4.77;;;27.30;55.50;;;;;;5235164;28;20470;-51
2023/07/05 10:41:58;;;;;;;4.63;4.20;;;27.80;53.50;;;;;;5237788;28;20793;-52
2023/07/05 10:44:31;;;;;;;9.67;5.47;;;28.00;53.50;;;;;;5239869;28;20443;-52
2023/07/05 10:47:03;;;;;;;7.43;4.63;;;27.90;53.70;;;;;;5218857;28;20464;-52
2023/07/05 10:49:35;;;;;;;11.23;4.60;;;27.80;53.20;;;;;;5237493;28;20520;-51
2023/07/05 10:52:11;;;;;;;5.80;4.17;;;27.80;53.40;;;;;;5238483;28;20582;-54
2023/07/05 10:54:53;;;;;;;5.50;4.20;;;27.60;53.70;;;;;;5219921;28;20424;-51
2023/07/05 10:57:31;;;;;;;7.03;4.07;;;27.50;54.20;;;;;;5222223;28;20551;-51
2023/07/05 11:00:23;;;;;;;7.30;4.10;;;27.40;54.20;;;;;;5235039;28;20429;-51
2023/07/05 11:03:00;;;;;;;8.63;3.40;;;27.30;54.50;;;;;;5217856;28;20841;-51
2023/07/05 11:05:49;;;;;;;4.70;4.07;;;27.30;54.80;;;;;;5220406;28;20881;-51
2023/07/05 11:08:34;;;;;;;3.97;3.67;;;27.30;55.50;;;;;;5226628;28;20456;-52
2023/07/05 11:11:19;;;;;;;3.77;3.23;;;27.10;55.50;;;;;;5239087;28;20560;-51
2023/07/05 11:13:52;;;;;;;4.50;3.90;;;27.00;55.90;;;;;;5227117;28;20970;-52
2023/07/05 11:16:25;;;;;;;22.23;3.40;;;26.70;58.10;;;;;;5236553;28;20517;-51
2023/07/05 11:19:06;;;;;;;8.23;4.43;;;26.20;61.40;;;;;;5235980;28;20802;-52
2023/07/05 11:21:46;;;;;;;3.13;2.93;;;25.20;64.50;;;;;;5236109;28;20483;-51
2023/07/05 11:24:38;;;;;;;3.40;3.20;;;24.90;68.40;;;;;;5220759;28;20524;-50
2023/07/05 11:27:24;;;;;;;3.63;3.33;;;24.80;71.10;;;;;;5223342;28;20457;-53
2023/07/05 11:29:55;;;;;;;3.50;3.30;;;25.30;72.60;;;;;;5233524;28;20999;-51
2023/07/05 11:33:01;;;;;;;5.20;3.83;;;25.50;69.90;;;;;;5199192;28;20436;-51
2023/07/05 11:35:52;;;;;;;3.90;3.50;;;25.90;67.60;;;;;;5230605;28;20494;-51
2023/07/05 11:38:35;;;;;;;3.03;2.70;;;26.30;65.30;;;;;;5230663;28;20466;-51
2023/07/05 11:41:25;;;;;;;2.60;2.40;;;26.20;63.10;;;;;;5217202;28;20463;-50
2023/07/05 11:44:03;;;;;;;2.40;2.30;;;25.90;63.00;;;;;;5220089;28;20559;-52
2023/07/05 11:46:37;;;;;;;5.67;2.93;;;25.90;64.00;;;;;;5218478;28;20992;-53
2023/07/05 11:49:20;;;;;;;2.93;2.73;;;26.20;64.10;;;;;;5199774;28;20439;-51
2023/07/05 11:52:03;;;;;;;1.93;1.83;;;26.70;63.20;;;;;;5240225;28;20455;-53
2023/07/05 11:54:37;;;;;;;5.03;3.23;;;26.80;60.80;;;;;;5240179;28;20441;-52
2023/07/05 11:57:11;;;;;;;4.00;2.70;;;26.80;61.50;;;;;;5219260;28;20526;-50
2023/07/05 12:00:20;;;;;;;2.17;1.97;;;26.80;60.40;;;;;;5220997;28;20852;-52
2023/07/05 12:03:06;;;;;;;2.97;2.63;;;26.80;59.90;;;;;;5182067;28;20578;-52
2023/07/05 12:05:38;;;;;;;2.17;2.07;;;26.70;60.10;;;;;;5218267;28;20457;-51
2023/07/05 12:08:24;;;;;;;2.53;2.43;;;26.70;60.10;;;;;;5217710;28;21129;-51
2023/07/05 12:10:58;;;;;;;3.70;2.20;;;26.70;60.00;;;;;;5232115;28;20459;-52
2023/07/05 12:13:35;;;;;;;2.00;1.90;;;26.90;59.80;;;;;;5237157;28;20843;-54
2023/07/05 12:16:12;;;;;;;2.67;2.40;;;27.10;59.50;;;;;;5202206;28;20468;-52
2023/07/05 12:18:43;;;;;;;2.03;1.93;;;27.30;59.30;;;;;;5218522;28;20443;-52
2023/07/05 12:21:13;;;;;;;2.60;2.40;;;27.50;58.10;;;;;;5217922;28;20461;-52
2023/07/05 12:23:48;;;;;;;4.00;2.17;;;27.20;57.60;;;;;;5237798;28;20185;-50
2023/07/05 12:26:29;;;;;;;2.80;2.10;;;27.40;57.80;;;;;;5215536;28;20215;-52
2023/07/05 12:29:13;;;;;;;2.00;1.90;;;27.40;57.90;;;;;;5221398;28;20538;-51
2023/07/05 12:31:44;;;;;;;2.03;1.93;;;27.50;57.00;;;;;;5219445;28;20483;-51
2023/07/05 12:34:21;;;;;;;1.80;1.70;;;27.40;57.00;;;;;;5220900;28;20479;-51
2023/07/05 12:36:52;;;;;;;1.90;1.80;;;27.30;56.60;;;;;;5222761;28;20293;-51
2023/07/05 12:39:22;;;;;;;1.63;1.53;;;27.30;56.40;;;;;;5216127;28;20876;-51
2023/07/05 12:42:09;;;;;;;2.90;1.90;;;27.40;56.50;;;;;;5230287;28;20675;-50
2023/07/05 12:44:40;;;;;;;3.63;3.03;;;27.60;56.10;;;;;;5232975;28;20187;-51
2023/07/05 12:47:15;;;;;;;7.10;1.83;;;27.60;55.60;;;;;;5215953;28;20473;-50
2023/07/05 12:49:48;;;;;;;3.90;2.40;;;27.60;56.20;;;;;;5219648;28;20964;-51
2023/07/05 12:52:21;;;;;;;4.73;1.80;;;27.60;56.20;;;;;;5240708;28;20433;-54
2023/07/05 12:54:52;;;;;;;2.53;2.37;;;27.50;56.10;;;;;;5232533;28;20444;-52
2023/07/05 12:57:27;;;;;;;5.43;1.80;;;27.50;55.90;;;;;;5217460;28;20461;-50
2023/07/05 12:59:58;;;;;;;1.30;1.30;;;27.50;55.40;;;;;;5235166;28;20182;-52
2023/07/05 13:02:30;;;;;;;2.70;2.50;;;27.40;55.30;;;;;;5239375;28;20507;-51
2023/07/05 13:05:03;;;;;;;8.00;1.97;;;27.50;55.50;;;;;;5213123;28;20442;-52
2023/07/05 13:07:35;;;;;;;4.63;2.17;;;27.50;55.00;;;;;;5209029;28;20452;-51
2023/07/05 13:10:07;;;;;;;3.40;1.37;;;27.50;54.80;;;;;;5241118;28;20528;-53
2023/07/05 13:12:55;;;;;;;1.37;1.20;;;27.50;55.30;;;;;;5234960;28;20445;-53
2023/07/05 13:15:37;;;;;;;2.13;1.50;;;27.40;55.10;;;;;;5228693;28;20812;-50
2023/07/05 13:18:29;;;;;;;1.90;1.80;;;27.30;55.80;;;;;;5228416;28;20926;-52
2023/07/05 13:21:10;;;;;;;1.67;1.57;;;27.40;56.00;;;;;;5219017;28;20448;-50